createdAt,value
2018-02-06T00:02:05.947Z,36.73
2018-02-06T00:04:31.759Z,36.89
2018-02-06T00:06:57.566Z,36.77
2018-02-06T00:09:23.409Z,36.97
2018-02-06T00:11:56.118Z,36.90
2018-02-06T00:14:21.946Z,36.88
2018-02-06T00:16:47.759Z,37.10
2018-02-06T00:19:13.571Z,36.74
2018-02-06T00:21:39.373Z,36.68
2018-02-06T00:24:05.222Z,37.28
2018-02-06T00:26:31.072Z,38.36
2018-02-06T00:28:56.887Z,39.15
2018-02-06T00:31:22.704Z,38.10
2018-02-06T00:33:48.510Z,36.98
2018-02-06T00:36:14.364Z,36.80
2018-02-06T00:38:40.206Z,36.74
2018-02-06T00:41:06.014Z,36.62
2018-02-06T00:43:31.827Z,36.54
2018-02-06T00:45:57.642Z,36.54
2018-02-06T00:48:23.451Z,36.94
2018-02-06T00:50:49.269Z,36.42
2018-02-06T00:53:15.079Z,36.48
2018-02-06T00:55:40.886Z,36.23
2018-02-06T00:58:06.699Z,36.37
2018-02-06T01:00:32.522Z,36.30
2018-02-06T01:02:58.384Z,35.93
2018-02-06T01:05:24.203Z,35.86
2018-02-06T01:07:50.018Z,35.71
2018-02-06T01:10:15.826Z,35.85
2018-02-06T01:12:41.641Z,36.52
2018-02-06T01:15:07.452Z,36.97
2018-02-06T01:17:33.263Z,36.90
2018-02-06T01:19:59.072Z,36.83
2018-02-06T01:22:24.914Z,36.77
2018-02-06T01:24:50.772Z,36.55
2018-02-06T01:27:17.554Z,36.53
2018-02-06T01:29:43.402Z,36.24
2018-02-06T01:32:09.215Z,36.08
2018-02-06T01:34:35.074Z,35.95
2018-02-06T01:37:00.879Z,35.88
2018-02-06T01:39:26.726Z,35.93
2018-02-06T01:41:52.546Z,36.11
2018-02-06T01:44:18.350Z,36.13
2018-02-06T01:46:44.202Z,36.14
2018-02-06T01:49:10.005Z,36.05
2018-02-06T01:51:35.813Z,36.08
2018-02-06T01:54:01.627Z,36.09
2018-02-06T01:56:27.441Z,36.22
2018-02-06T01:58:53.254Z,36.23
2018-02-06T02:01:19.103Z,36.82
2018-02-06T02:03:44.918Z,36.78
2018-02-06T02:06:10.730Z,36.73
2018-02-06T02:08:36.534Z,36.67
2018-02-06T02:11:02.349Z,36.54
2018-02-06T02:13:28.158Z,36.50
2018-02-06T02:15:53.965Z,36.39
2018-02-06T02:18:19.814Z,36.40
2018-02-06T02:20:45.626Z,36.20
2018-02-06T02:23:11.446Z,35.83
2018-02-06T02:25:37.266Z,36.32
2018-02-06T02:28:03.112Z,36.25
2018-02-06T02:30:28.962Z,36.02
2018-02-06T02:32:54.782Z,35.97
2018-02-06T02:35:20.591Z,36.09
2018-02-06T02:37:46.403Z,36.13
2018-02-06T02:40:12.254Z,36.54
2018-02-06T04:39:13.526Z,35.74
2018-02-06T04:41:39.374Z,35.70
2018-02-06T04:44:05.194Z,35.65
2018-02-06T04:46:31.020Z,35.60
2018-02-06T04:48:56.846Z,35.37
2018-02-06T04:51:22.702Z,35.43
2018-02-06T04:53:48.515Z,35.50
2018-02-06T04:56:14.330Z,35.65
2018-02-06T04:58:40.142Z,35.50
2018-02-06T05:01:07.918Z,36.14
2018-02-06T05:03:33.763Z,36.20
2018-02-06T05:05:59.582Z,35.83
2018-02-06T05:08:25.431Z,35.74
2018-02-06T05:10:51.270Z,35.69
2018-02-06T05:13:17.080Z,35.81
2018-02-06T05:15:42.895Z,35.89
2018-02-06T05:18:08.701Z,35.90
2018-02-06T05:20:34.514Z,35.83
2018-02-06T05:23:00.371Z,36.09
2018-02-06T05:25:26.186Z,36.34
2018-02-06T05:27:51.994Z,35.95
2018-02-06T05:30:17.810Z,35.80
2018-02-06T05:32:43.666Z,35.82
2018-02-06T05:35:09.478Z,35.84
2018-02-06T05:37:35.286Z,36.02
2018-02-06T05:40:01.130Z,35.80
2018-02-06T05:42:26.984Z,35.74
2018-02-06T05:44:52.790Z,36.12
2018-02-06T05:47:18.603Z,36.25
2018-02-06T05:49:44.422Z,36.19
2018-02-06T05:52:10.229Z,35.91
2018-02-06T05:54:36.038Z,35.81
2018-02-06T05:57:01.854Z,35.82
2018-02-06T05:59:27.666Z,35.63
2018-02-06T06:01:53.538Z,35.48
2018-02-06T06:04:19.346Z,35.30
2018-02-06T06:06:45.155Z,35.40
2018-02-06T06:09:10.961Z,35.47
2018-02-06T06:11:40.411Z,35.63
2018-02-06T06:14:06.227Z,35.62
2018-02-06T06:16:32.080Z,35.53
2018-02-06T06:18:57.895Z,35.56
2018-02-06T06:21:23.714Z,35.67
2018-02-06T06:23:49.661Z,35.75
2018-02-06T06:26:15.613Z,35.58
2018-02-06T06:28:41.418Z,35.43
2018-02-06T06:31:07.229Z,35.43
2018-02-06T06:33:33.046Z,35.66
2018-02-06T06:35:58.862Z,35.72
2018-02-06T06:38:24.670Z,35.68
2018-02-06T06:40:50.474Z,35.65
2018-02-06T06:43:16.281Z,35.54
2018-02-06T06:45:42.103Z,35.50
2018-02-06T06:48:07.995Z,35.43
2018-02-06T06:50:33.798Z,35.54
2018-02-06T06:52:59.606Z,35.64
2018-02-06T06:55:25.426Z,35.56
2018-02-06T06:57:51.242Z,35.59
2018-02-06T07:00:17.046Z,35.65
2018-02-06T07:02:42.866Z,35.78
2018-02-06T07:05:08.710Z,35.71
2018-02-06T07:07:34.566Z,35.70
2018-02-06T07:10:00.394Z,35.61
2018-02-06T07:12:27.130Z,35.79
2018-02-06T07:14:52.999Z,35.58
2018-02-06T07:17:18.805Z,35.54
2018-02-06T07:19:44.618Z,35.45
2018-02-06T07:22:10.435Z,35.42
2018-02-06T07:24:36.252Z,35.34
2018-02-06T07:27:02.059Z,35.28
2018-02-06T07:29:27.862Z,35.42
2018-02-06T07:31:53.691Z,35.42
2018-02-06T07:34:19.502Z,35.50
2018-02-06T07:36:45.306Z,35.52
2018-02-06T07:39:11.109Z,35.79
2018-02-06T07:41:36.919Z,35.83
2018-02-06T07:44:02.786Z,35.70
2018-02-06T07:46:28.590Z,35.67
2018-02-06T07:48:54.394Z,35.67
2018-02-06T07:51:20.242Z,35.45
2018-02-06T07:53:46.070Z,35.58
2018-02-06T07:56:11.944Z,35.69
2018-02-06T07:58:37.774Z,35.64
2018-02-06T08:01:03.590Z,35.67
2018-02-06T08:03:29.389Z,35.62
2018-02-06T08:05:55.198Z,35.66
2018-02-06T08:08:21.002Z,35.65
2018-02-06T08:10:46.882Z,35.63
2018-02-06T08:13:12.686Z,35.64
2018-02-06T08:15:38.614Z,35.52
2018-02-06T08:18:04.434Z,35.62
2018-02-06T08:20:30.270Z,35.71
2018-02-06T08:22:56.134Z,35.60
2018-02-06T08:25:21.938Z,35.82
2018-02-06T08:27:47.741Z,35.85
2018-02-06T08:30:13.551Z,35.71
2018-02-06T08:32:39.361Z,35.79
2018-02-06T08:35:05.211Z,35.79
2018-02-06T08:37:31.020Z,35.72
2018-02-06T08:39:56.821Z,35.92
2018-02-06T08:42:22.675Z,35.96
2018-02-06T08:44:48.474Z,35.82
2018-02-06T08:47:15.140Z,35.90
2018-02-06T08:49:40.954Z,35.86
2018-02-06T08:52:06.821Z,35.99
2018-02-06T08:54:32.678Z,35.94
2018-02-06T08:56:58.489Z,35.77
2018-02-06T08:59:24.299Z,35.69
2018-02-06T09:01:50.106Z,35.86
2018-02-06T09:04:15.913Z,35.81
2018-02-06T09:06:41.724Z,35.74
2018-02-06T09:09:07.534Z,35.64
2018-02-06T09:11:33.342Z,35.77
2018-02-06T09:13:59.193Z,35.46
2018-02-06T09:16:25.051Z,35.80
2018-02-06T09:18:50.846Z,35.71
2018-02-06T09:21:16.691Z,35.67
2018-02-06T09:23:42.491Z,35.66
2018-02-06T09:26:08.308Z,35.42
2018-02-06T09:28:34.121Z,35.58
2018-02-06T09:30:59.930Z,35.52
2018-02-06T09:33:25.739Z,35.43
2018-02-06T09:35:51.558Z,35.29
2018-02-06T09:38:17.378Z,35.02
2018-02-06T09:40:43.190Z,35.15
2018-02-06T09:43:08.993Z,35.12
2018-02-06T09:45:34.822Z,35.30
2018-02-06T09:50:33.293Z,35.47
2018-02-06T09:52:59.099Z,35.20
2018-02-06T09:55:24.910Z,35.11
2018-02-06T09:57:50.724Z,35.20
2018-02-06T10:00:16.543Z,35.15
2018-02-06T10:02:42.359Z,35.31
2018-02-06T10:05:08.166Z,35.05
2018-02-06T10:07:33.986Z,35.23
2018-02-06T10:09:59.795Z,35.15
2018-02-06T10:12:25.846Z,35.02
2018-02-06T10:14:51.818Z,35.04
2018-02-06T10:17:17.748Z,35.03
2018-02-06T10:19:43.569Z,34.89
2018-02-06T10:22:09.378Z,34.95
2018-02-06T10:24:35.189Z,34.83
2018-02-06T10:27:01.939Z,34.81
2018-02-06T10:29:27.757Z,34.90
2018-02-06T10:31:53.575Z,35.15
2018-02-06T10:34:19.400Z,35.06
2018-02-06T10:36:45.214Z,34.89
2018-02-06T10:39:11.022Z,34.90
2018-02-06T10:41:36.830Z,34.53
2018-02-06T10:44:02.674Z,34.58
2018-02-06T10:46:28.488Z,34.54
2018-02-06T10:48:54.301Z,34.46
2018-02-06T10:51:20.127Z,34.62
2018-02-06T10:53:45.929Z,34.40
2018-02-06T10:56:11.738Z,34.58
2018-02-06T10:58:37.583Z,34.62
2018-02-06T11:01:03.393Z,34.45
2018-02-06T11:03:29.209Z,34.47
2018-02-06T11:05:55.023Z,34.49
2018-02-06T11:08:20.825Z,34.60
2018-02-06T11:10:46.949Z,34.21
2018-02-06T11:13:12.812Z,34.07
2018-02-06T11:15:38.617Z,33.88
2018-02-06T11:18:04.419Z,33.74
2018-02-06T11:20:30.229Z,33.90
2018-02-06T11:22:56.076Z,33.87
2018-02-06T11:25:21.877Z,34.00
2018-02-06T11:27:47.722Z,34.00
2018-02-06T11:30:13.529Z,33.92
2018-02-06T11:32:39.372Z,33.82
2018-02-06T11:35:05.197Z,33.81
2018-02-06T11:37:31.089Z,33.74
2018-02-06T11:39:56.922Z,33.87
2018-02-06T11:42:22.730Z,33.75
2018-02-06T11:44:48.534Z,33.60
2018-02-06T11:47:14.397Z,33.63
2018-02-06T11:49:40.245Z,33.67
2018-02-06T11:52:06.041Z,33.68
2018-02-06T11:54:31.890Z,33.53
2018-02-06T11:56:57.694Z,33.76
2018-02-06T11:59:23.547Z,33.55
2018-02-06T12:01:49.389Z,33.56
2018-02-06T12:04:15.198Z,33.19
2018-02-06T12:06:41.005Z,33.12
2018-02-06T12:09:06.813Z,32.92
2018-02-06T12:11:32.686Z,33.22
2018-02-06T12:13:58.493Z,33.53
2018-02-06T12:16:25.252Z,33.20
2018-02-06T12:18:51.062Z,33.10
2018-02-06T12:21:16.873Z,33.17
2018-02-06T12:23:42.678Z,32.85
2018-02-06T12:26:08.485Z,33.04
2018-02-06T12:28:34.289Z,33.04
2018-02-06T12:31:00.129Z,33.02
2018-02-06T12:33:25.930Z,33.31
2018-02-06T12:35:51.738Z,33.12
2018-02-06T12:38:17.566Z,33.27
2018-02-06T12:40:43.370Z,32.99
2018-02-06T12:43:09.209Z,33.10
2018-02-06T12:45:35.008Z,33.14
2018-02-06T12:48:00.864Z,33.05
2018-02-06T12:50:26.658Z,33.17
2018-02-06T12:52:52.462Z,33.04
2018-02-06T12:55:18.264Z,33.11
2018-02-06T12:57:44.118Z,33.33
2018-02-06T13:00:09.922Z,33.05
2018-02-06T13:02:35.730Z,32.99
2018-02-06T13:05:01.538Z,33.13
2018-02-06T13:07:27.897Z,33.24
2018-02-06T13:09:53.705Z,33.10
2018-02-06T13:12:20.573Z,32.84
2018-02-06T13:14:46.373Z,32.66
2018-02-06T13:17:12.176Z,32.62
2018-02-06T13:19:37.981Z,32.60
2018-02-06T13:22:03.797Z,32.59
2018-02-06T13:24:29.650Z,32.79
2018-02-06T13:26:55.449Z,32.69
2018-02-06T13:29:21.245Z,32.81
2018-02-06T13:31:47.050Z,32.56
2018-02-06T13:34:12.853Z,32.37
2018-02-06T13:36:38.654Z,32.24
2018-02-06T13:39:04.463Z,32.34
2018-02-06T13:41:30.268Z,32.21
2018-02-06T13:43:56.070Z,32.41
2018-02-06T13:46:21.914Z,32.50
2018-02-06T13:48:47.722Z,32.56
2018-02-06T13:51:13.529Z,32.50
2018-02-06T13:53:39.381Z,32.38
2018-02-06T13:56:05.188Z,32.22
2018-02-06T13:58:31.010Z,32.26
2018-02-06T14:00:56.827Z,32.11
2018-02-06T14:03:22.646Z,32.12
2018-02-06T14:05:48.476Z,32.07
2018-02-06T14:08:14.295Z,31.88
2018-02-06T14:10:40.151Z,31.94
2018-02-06T14:13:05.961Z,32.13
2018-02-06T14:15:31.807Z,32.39
2018-02-06T14:17:57.615Z,32.55
2018-02-06T14:20:23.430Z,32.36
2018-02-06T14:22:49.314Z,32.33
2018-02-06T14:25:15.126Z,32.11
2018-02-06T14:27:40.929Z,31.96
2018-02-06T14:30:06.738Z,32.19
2018-02-06T14:32:32.542Z,32.25
2018-02-06T14:34:58.400Z,32.28
2018-02-06T14:37:25.143Z,32.41
2018-02-06T14:39:50.949Z,32.27
2018-02-06T14:42:16.758Z,32.23
2018-02-06T14:44:42.569Z,32.13
2018-02-06T14:47:09.422Z,32.10
2018-02-06T14:49:35.238Z,31.92
2018-02-06T14:52:01.121Z,32.05
2018-02-06T14:54:26.934Z,32.22
2018-02-06T14:56:52.790Z,32.41
2018-02-06T14:59:18.604Z,31.77
2018-02-06T15:01:44.464Z,31.71
2018-02-06T15:04:10.276Z,31.95
2018-02-06T15:06:36.086Z,31.90
2018-02-06T15:09:01.898Z,31.83
2018-02-06T15:11:27.706Z,31.92
2018-02-06T15:13:53.566Z,31.87
2018-02-06T15:16:19.434Z,32.28
2018-02-06T15:18:45.254Z,32.21
2018-02-06T15:21:11.075Z,32.14
2018-02-06T15:23:37.854Z,32.36
2018-02-06T15:26:03.701Z,32.29
2018-02-06T15:28:29.508Z,32.81
2018-02-06T15:30:55.398Z,33.00
2018-02-06T15:33:21.223Z,33.09
2018-02-06T15:35:47.074Z,33.17
2018-02-06T15:38:12.889Z,33.18
2018-02-06T15:40:38.737Z,33.26
2018-02-06T15:43:04.546Z,33.41
2018-02-06T15:45:30.418Z,33.66
2018-02-06T15:47:56.315Z,34.66
2018-02-06T15:50:22.122Z,34.55
2018-02-06T15:52:47.963Z,34.19
2018-02-06T15:55:13.821Z,33.92
2018-02-06T15:57:39.667Z,34.16
2018-02-06T16:00:05.494Z,34.32
2018-02-06T16:02:31.350Z,34.46
2018-02-06T16:04:57.167Z,34.51
2018-02-06T16:07:22.984Z,34.47
2018-02-06T16:09:48.830Z,34.52
2018-02-06T16:12:14.996Z,34.54
2018-02-06T16:14:40.801Z,34.57
2018-02-06T16:17:07.389Z,35.11
2018-02-06T16:19:33.294Z,35.00
2018-02-06T16:21:59.097Z,34.74
2018-02-06T16:24:24.933Z,34.81
2018-02-06T16:26:50.738Z,34.97
2018-02-06T16:29:16.602Z,35.09
2018-02-06T16:31:42.418Z,35.66
2018-02-06T16:34:08.222Z,35.23
2018-02-06T16:36:34.032Z,35.38
2018-02-06T16:38:59.846Z,35.33
2018-02-06T16:41:25.650Z,35.17
2018-02-06T16:43:51.466Z,35.15
2018-02-06T16:46:17.314Z,34.96
2018-02-06T16:48:43.174Z,35.09
2018-02-06T16:51:09.017Z,35.19
2018-02-06T16:53:35.799Z,35.07
2018-02-06T16:56:01.662Z,35.10
2018-02-06T16:58:27.505Z,34.99
2018-02-06T17:00:53.322Z,34.89
2018-02-06T17:03:19.126Z,35.26
2018-02-06T17:05:44.941Z,35.34
2018-02-06T17:08:10.745Z,35.29
2018-02-06T17:10:36.586Z,35.21
2018-02-06T17:13:02.407Z,35.27
2018-02-06T17:15:28.221Z,35.22
2018-02-06T17:17:54.182Z,35.10
2018-02-06T17:20:19.983Z,35.02
2018-02-06T17:22:46.151Z,35.11
2018-02-06T17:25:12.051Z,35.29
2018-02-06T17:27:38.311Z,35.27
2018-02-06T17:30:04.182Z,35.03
2018-02-06T17:32:30.203Z,35.01
2018-02-06T17:34:56.020Z,35.02
2018-02-06T17:37:22.256Z,35.03
2018-02-06T17:39:48.070Z,35.10
2018-02-06T17:42:13.879Z,34.90
2018-02-06T17:44:39.682Z,34.90
2018-02-06T17:47:05.490Z,34.94
2018-02-06T17:49:31.293Z,35.34
2018-02-06T17:51:57.107Z,35.39
2018-02-06T17:54:22.916Z,34.91
2018-02-06T17:56:48.960Z,35.00
2018-02-06T17:59:14.765Z,34.70
2018-02-06T18:01:40.626Z,34.46
2018-02-06T18:04:06.486Z,34.31
2018-02-06T18:06:32.309Z,34.22
2018-02-06T18:08:58.158Z,34.17
2018-02-06T18:11:23.982Z,34.51
2018-02-06T18:13:49.911Z,34.58
2018-02-06T18:16:15.726Z,34.35
2018-02-06T18:18:41.585Z,34.38
2018-02-06T18:21:07.397Z,34.20
2018-02-06T18:23:33.206Z,33.95
2018-02-06T18:25:59.014Z,33.93
2018-02-06T18:28:24.827Z,34.27
2018-02-06T18:30:50.666Z,34.26
2018-02-06T18:33:16.477Z,33.95
2018-02-06T18:35:42.471Z,34.09
2018-02-06T18:38:08.278Z,34.01
2018-02-06T18:40:34.122Z,34.09
2018-02-06T18:43:00.075Z,34.08
2018-02-06T18:45:26.075Z,34.17
2018-02-06T18:47:51.926Z,34.05
2018-02-06T18:50:17.898Z,33.84
2018-02-06T18:52:43.742Z,34.40
2018-02-06T18:55:09.637Z,34.08
2018-02-06T18:57:35.446Z,33.91
2018-02-06T19:00:01.278Z,33.94
2018-02-06T19:02:27.240Z,33.72
2018-02-06T19:04:53.297Z,33.56
2018-02-06T19:07:19.110Z,33.47
2018-02-06T19:09:44.963Z,33.26
2018-02-06T19:12:10.801Z,33.56
2018-02-06T19:14:36.677Z,33.28
2018-02-06T19:17:02.566Z,33.20
2018-02-06T19:19:28.426Z,33.37
2018-02-06T19:21:54.339Z,33.50
2018-02-06T19:24:20.185Z,33.43
2018-02-06T19:26:46.114Z,33.40
2018-02-06T19:29:11.926Z,33.28
2018-02-06T19:31:37.729Z,33.23
2018-02-06T19:34:03.547Z,33.33
2018-02-06T19:36:29.506Z,33.37
2018-02-06T19:38:55.470Z,33.33
2018-02-06T19:41:21.350Z,33.29
2018-02-06T19:43:47.169Z,33.52
2018-02-06T19:46:12.974Z,33.29
2018-02-06T19:48:38.830Z,33.30
2018-02-06T19:51:04.705Z,33.38
2018-02-06T19:53:30.519Z,33.22
2018-02-06T19:55:56.379Z,33.32
2018-02-06T19:58:22.195Z,33.54
2018-02-06T20:00:48.002Z,33.33
2018-02-06T20:03:13.822Z,33.23
2018-02-06T20:05:39.628Z,33.20
2018-02-06T20:08:05.483Z,33.13
2018-02-06T20:10:31.354Z,33.37
2018-02-06T20:12:57.165Z,33.33
2018-02-06T20:15:22.978Z,33.51
2018-02-06T20:17:48.782Z,33.63
2018-02-06T20:20:14.598Z,33.45
2018-02-06T20:22:40.405Z,33.45
2018-02-06T20:25:06.258Z,33.52
2018-02-06T20:27:32.977Z,33.68
2018-02-06T20:29:58.785Z,33.63
2018-02-06T20:32:24.595Z,33.49
2018-02-06T20:34:50.443Z,33.58
2018-02-06T20:37:16.250Z,33.57
2018-02-06T20:39:42.191Z,33.74
2018-02-06T20:42:08.010Z,34.06
2018-02-06T20:44:33.818Z,34.22
2018-02-06T20:46:59.626Z,33.95
2018-02-06T20:49:25.625Z,33.86
2018-02-06T20:51:51.433Z,33.85
2018-02-06T20:54:17.537Z,34.02
2018-02-06T20:56:43.937Z,33.94
2018-02-06T20:59:10.264Z,33.78
2018-02-06T21:01:36.580Z,33.81
2018-02-06T21:04:02.804Z,33.79
2018-02-06T21:06:28.780Z,33.60
2018-02-06T21:08:54.891Z,33.64
2018-02-06T21:11:21.572Z,33.59
2018-02-06T21:13:47.783Z,33.54
2018-02-06T21:16:14.178Z,33.44
2018-02-06T21:18:40.667Z,33.37
2018-02-06T21:21:06.978Z,33.24
2018-02-06T21:23:33.721Z,33.21
2018-02-06T21:25:59.883Z,33.22
2018-02-06T21:28:26.352Z,33.14
2018-02-06T21:30:52.644Z,33.05
2018-02-06T21:33:18.878Z,33.15
2018-02-06T21:35:44.692Z,33.06
2018-02-06T21:38:10.493Z,33.00
2018-02-06T21:40:36.298Z,33.37
2018-02-06T21:43:02.102Z,33.40
2018-02-06T21:45:27.910Z,33.05
2018-02-06T21:47:53.752Z,33.24
2018-02-06T21:50:19.565Z,33.08
2018-02-06T21:52:45.413Z,33.26
2018-02-06T21:55:11.221Z,33.27
2018-02-06T21:57:37.021Z,33.12
2018-02-06T22:00:02.841Z,33.11
2018-02-06T22:02:28.654Z,33.20
2018-02-06T22:04:54.473Z,33.01
2018-02-06T22:07:20.541Z,33.12
2018-02-06T22:09:46.477Z,33.07
2018-02-06T22:12:12.334Z,33.02
2018-02-06T22:14:38.284Z,32.87
2018-02-06T22:17:04.264Z,33.14
2018-02-06T22:19:31.185Z,32.94
2018-02-06T22:21:57.123Z,32.91
2018-02-06T22:24:23.038Z,33.08
2018-02-06T22:26:48.975Z,33.07
2018-02-06T22:29:14.879Z,33.04
2018-02-06T22:31:40.742Z,32.78
2018-02-06T22:34:06.722Z,32.96
2018-02-06T22:36:32.583Z,32.92
2018-02-06T22:38:58.639Z,32.81
2018-02-06T22:41:24.730Z,32.93
2018-02-06T22:43:50.653Z,32.84
2018-02-06T22:46:16.678Z,32.80
2018-02-06T22:48:42.550Z,32.89
2018-02-06T22:51:08.408Z,32.74
2018-02-06T22:53:34.324Z,32.68
2018-02-06T22:56:00.189Z,32.74
2018-02-06T22:58:26.068Z,32.83
2018-02-06T23:00:52.105Z,32.76
2018-02-06T23:03:17.956Z,32.78
2018-02-06T23:05:43.844Z,32.75
2018-02-06T23:08:09.713Z,32.74
2018-02-06T23:10:35.614Z,32.85
2018-02-06T23:13:01.463Z,32.90
2018-02-06T23:15:27.380Z,32.90
2018-02-06T23:17:53.258Z,32.81
2018-02-06T23:20:19.125Z,32.91
2018-02-06T23:31:01.443Z,33.14
2018-02-06T23:33:27.245Z,32.97
2018-02-06T23:35:53.054Z,32.79
2018-02-06T23:38:18.870Z,32.74
2018-02-06T23:40:44.759Z,32.87
2018-02-06T23:43:10.569Z,32.81
2018-02-06T23:45:36.382Z,32.76
2018-02-06T23:48:02.203Z,32.72
2018-02-06T23:50:28.053Z,32.85
2018-02-06T23:52:53.932Z,32.80
2018-02-06T23:55:19.757Z,32.79
2018-02-06T23:57:45.563Z,32.92
